sensor_id;sensor_type;location;lat;lon;timestamp;P1;durP1;ratioP1;P2;durP2;ratioP2
37917;SDS011;23749;51.410;21.130;2022-09-03T00:00:16;33.17;;;30.90;;
37917;SDS011;23749;51.410;21.130;2022-09-03T00:08:38;30.20;;;28.17;;
37917;SDS011;23749;51.410;21.130;2022-09-03T00:17:05;36.13;;;33.67;;
37917;SDS011;23749;51.410;21.130;2022-09-03T00:25:29;33.23;;;30.47;;
37917;SDS011;23749;51.410;21.130;2022-09-03T00:33:57;47.13;;;44.10;;
37917;SDS011;23749;51.410;21.130;2022-09-03T01:16:53;53.70;;;50.40;;
37917;SDS011;23749;51.410;21.130;2022-09-03T01:33:38;74.47;;;69.83;;
37917;SDS011;23749;51.410;21.130;2022-09-03T01:42:01;62.23;;;57.97;;
37917;SDS011;23749;51.410;21.130;2022-09-03T01:58:57;61.63;;;57.87;;
37917;SDS011;23749;51.410;21.130;2022-09-03T02:07:21;56.43;;;53.13;;
37917;SDS011;23749;51.410;21.130;2022-09-03T02:15:44;57.83;;;54.30;;
37917;SDS011;23749;51.410;21.130;2022-09-03T02:24:05;53.43;;;50.20;;
37917;SDS011;23749;51.410;21.130;2022-09-03T02:32:27;56.77;;;53.30;;
37917;SDS011;23749;51.410;21.130;2022-09-03T02:40:47;46.80;;;43.70;;
37917;SDS011;23749;51.410;21.130;2022-09-03T02:49:08;48.00;;;45.20;;
37917;SDS011;23749;51.410;21.130;2022-09-03T02:57:28;63.27;;;59.60;;
37917;SDS011;23749;51.410;21.130;2022-09-03T03:05:50;64.90;;;61.23;;
37917;SDS011;23749;51.410;21.130;2022-09-03T03:14:10;48.13;;;45.40;;
37917;SDS011;23749;51.410;21.130;2022-09-03T03:22:30;43.83;;;40.97;;
37917;SDS011;23749;51.410;21.130;2022-09-03T03:30:51;58.37;;;55.00;;
37917;SDS011;23749;51.410;21.130;2022-09-03T03:39:11;39.87;;;37.30;;
37917;SDS011;23749;51.410;21.130;2022-09-03T03:47:32;50.93;;;48.07;;
37917;SDS011;23749;51.410;21.130;2022-09-03T03:55:53;38.00;;;35.57;;
37917;SDS011;23749;51.410;21.130;2022-09-03T04:04:13;36.90;;;34.30;;
37917;SDS011;23749;51.410;21.130;2022-09-03T04:12:33;40.70;;;38.40;;
37917;SDS011;23749;51.410;21.130;2022-09-03T04:20:57;33.80;;;31.70;;
37917;SDS011;23749;51.410;21.130;2022-09-03T04:29:18;38.00;;;36.00;;
37917;SDS011;23749;51.410;21.130;2022-09-03T04:37:38;267.17;;;251.20;;
37917;SDS011;23749;51.410;21.130;2022-09-03T04:45:59;662.57;;;616.70;;
37917;SDS011;23749;51.410;21.130;2022-09-03T04:54:19;431.17;;;402.37;;
37917;SDS011;23749;51.410;21.130;2022-09-03T05:02:40;380.70;;;355.07;;
37917;SDS011;23749;51.410;21.130;2022-09-03T05:11:00;460.42;;;424.67;;
37917;SDS011;23749;51.410;21.130;2022-09-03T05:19:20;507.80;;;465.42;;
37917;SDS011;23749;51.410;21.130;2022-09-03T05:27:41;682.90;;;622.83;;
37917;SDS011;23749;51.410;21.130;2022-09-03T05:36:02;753.30;;;684.30;;
37917;SDS011;23749;51.410;21.130;2022-09-03T05:44:23;1069.22;;;969.50;;
37917;SDS011;23749;51.410;21.130;2022-09-03T05:52:43;890.95;;;806.33;;
37917;SDS011;23749;51.410;21.130;2022-09-03T06:09:33;828.58;;;749.22;;
37917;SDS011;23749;51.410;21.130;2022-09-03T06:17:53;1034.47;;;935.70;;
37917;SDS011;23749;51.410;21.130;2022-09-03T06:26:14;983.58;;;890.75;;
37917;SDS011;23749;51.410;21.130;2022-09-03T06:34:34;881.17;;;799.90;;
37917;SDS011;23749;51.410;21.130;2022-09-03T06:42:55;920.85;;;837.97;;
37917;SDS011;23749;51.410;21.130;2022-09-03T06:51:19;697.20;;;635.90;;
37917;SDS011;23749;51.410;21.130;2022-09-03T06:59:40;840.00;;;766.58;;
37917;SDS011;23749;51.410;21.130;2022-09-03T07:08:00;860.13;;;785.28;;
37917;SDS011;23749;51.410;21.130;2022-09-03T07:16:21;741.67;;;677.13;;
37917;SDS011;23749;51.410;21.130;2022-09-03T07:24:42;759.47;;;694.08;;
37917;SDS011;23749;51.410;21.130;2022-09-03T07:33:05;872.53;;;797.97;;
37917;SDS011;23749;51.410;21.130;2022-09-03T07:41:26;785.80;;;719.33;;
37917;SDS011;23749;51.410;21.130;2022-09-03T07:49:46;832.28;;;762.22;;
37917;SDS011;23749;51.410;21.130;2022-09-03T07:58:07;818.30;;;749.75;;
37917;SDS011;23749;51.410;21.130;2022-09-03T08:06:27;865.85;;;794.28;;
37917;SDS011;23749;51.410;21.130;2022-09-03T08:14:48;998.15;;;917.53;;
37917;SDS011;23749;51.410;21.130;2022-09-03T08:23:08;952.85;;;875.78;;
37917;SDS011;23749;51.410;21.130;2022-09-03T08:31:29;932.40;;;857.10;;
37917;SDS011;23749;51.410;21.130;2022-09-03T08:39:49;1069.28;;;985.83;;
37917;SDS011;23749;51.410;21.130;2022-09-03T08:48:13;1124.82;;;999.90;;
37917;SDS011;23749;51.410;21.130;2022-09-03T08:56:36;1103.90;;;999.80;;
37917;SDS011;23749;51.410;21.130;2022-09-03T09:05:00;1068.40;;;972.57;;
37917;SDS011;23749;51.410;21.130;2022-09-03T09:22:26;996.88;;;922.55;;
37917;SDS011;23749;51.410;21.130;2022-09-03T09:30:48;1001.17;;;927.13;;
37917;SDS011;23749;51.410;21.130;2022-09-03T09:39:09;994.80;;;921.00;;
37917;SDS011;23749;51.410;21.130;2022-09-03T09:47:33;942.63;;;872.70;;
37917;SDS011;23749;51.410;21.130;2022-09-03T09:55:56;904.45;;;838.00;;
37917;SDS011;23749;51.410;21.130;2022-09-03T10:04:24;916.27;;;849.40;;
37917;SDS011;23749;51.410;21.130;2022-09-03T10:13:09;902.70;;;836.20;;
37917;SDS011;23749;51.410;21.130;2022-09-03T10:29:55;974.03;;;903.00;;
37917;SDS011;23749;51.410;21.130;2022-09-03T10:38:36;976.53;;;905.20;;
37917;SDS011;23749;51.410;21.130;2022-09-03T10:47:51;1000.47;;;927.97;;
37917;SDS011;23749;51.410;21.130;2022-09-03T11:04:11;977.23;;;906.20;;
37917;SDS011;23749;51.410;21.130;2022-09-03T11:12:41;971.20;;;901.00;;
37917;SDS011;23749;51.410;21.130;2022-09-03T11:21:03;1027.70;;;952.90;;
37917;SDS011;23749;51.410;21.130;2022-09-03T11:29:43;989.40;;;917.43;;
37917;SDS011;23749;51.410;21.130;2022-09-03T11:38:17;1039.23;;;963.23;;
37917;SDS011;23749;51.410;21.130;2022-09-03T11:46:40;1046.97;;;970.80;;
37917;SDS011;23749;51.410;21.130;2022-09-03T11:55:00;1082.63;;;997.60;;
37917;SDS011;23749;51.410;21.130;2022-09-03T12:03:25;1045.73;;;959.30;;
37917;SDS011;23749;51.410;21.130;2022-09-03T12:20:26;324.52;;;304.02;;
37917;SDS011;23749;51.410;21.130;2022-09-03T12:28:48;313.67;;;293.85;;
37917;SDS011;23749;51.410;21.130;2022-09-03T12:37:19;293.52;;;275.52;;
37917;SDS011;23749;51.410;21.130;2022-09-03T12:45:46;244.95;;;230.60;;
37917;SDS011;23749;51.410;21.130;2022-09-03T12:54:07;255.07;;;239.68;;
37917;SDS011;23749;51.410;21.130;2022-09-03T13:02:38;221.43;;;208.38;;
37917;SDS011;23749;51.410;21.130;2022-09-03T13:11:01;225.13;;;212.05;;
37917;SDS011;23749;51.410;21.130;2022-09-03T13:27:57;254.82;;;239.63;;
37917;SDS011;23749;51.410;21.130;2022-09-03T13:36:20;266.48;;;250.45;;
37917;SDS011;23749;51.410;21.130;2022-09-03T13:44:44;246.18;;;231.48;;
37917;SDS011;23749;51.410;21.130;2022-09-03T14:01:34;239.27;;;224.82;;
37917;SDS011;23749;51.410;21.130;2022-09-03T14:10:21;236.02;;;221.77;;
37917;SDS011;23749;51.410;21.130;2022-09-03T14:18:51;243.10;;;228.65;;
37917;SDS011;23749;51.410;21.130;2022-09-03T14:27:21;231.48;;;217.52;;
37917;SDS011;23749;51.410;21.130;2022-09-03T14:53:09;282.85;;;265.65;;
37917;SDS011;23749;51.410;21.130;2022-09-03T15:01:31;244.10;;;229.73;;
37917;SDS011;23749;51.410;21.130;2022-09-03T15:10:14;206.25;;;194.35;;
37917;SDS011;23749;51.410;21.130;2022-09-03T15:27:45;233.10;;;219.57;;
37917;SDS011;23749;51.410;21.130;2022-09-03T15:36:42;232.25;;;218.65;;
37917;SDS011;23749;51.410;21.130;2022-09-03T15:44:55;198.13;;;186.52;;
37917;SDS011;23749;51.410;21.130;2022-09-03T15:53:24;214.48;;;202.18;;
37917;SDS011;23749;51.410;21.130;2022-09-03T16:02:24;221.73;;;208.85;;
37917;SDS011;23749;51.410;21.130;2022-09-03T16:10:42;176.75;;;166.93;;
37917;SDS011;23749;51.410;21.130;2022-09-03T16:19:09;165.40;;;156.32;;
37917;SDS011;23749;51.410;21.130;2022-09-03T16:27:36;160.13;;;151.53;;
37917;SDS011;23749;51.410;21.130;2022-09-03T16:36:15;124.93;;;118.45;;
37917;SDS011;23749;51.410;21.130;2022-09-03T17:10:31;109.27;;;103.63;;
37917;SDS011;23749;51.410;21.130;2022-09-03T17:52:44;116.80;;;110.60;;
37917;SDS011;23749;51.410;21.130;2022-09-03T18:01:11;145.10;;;137.40;;
37917;SDS011;23749;51.410;21.130;2022-09-03T18:18:28;147.30;;;139.67;;
37917;SDS011;23749;51.410;21.130;2022-09-03T18:27:09;160.80;;;152.47;;
37917;SDS011;23749;51.410;21.130;2022-09-03T18:35:50;133.53;;;126.90;;
37917;SDS011;23749;51.410;21.130;2022-09-03T18:53:23;172.70;;;163.57;;
37917;SDS011;23749;51.410;21.130;2022-09-03T19:02:06;186.93;;;177.10;;
37917;SDS011;23749;51.410;21.130;2022-09-03T19:19:59;218.13;;;206.77;;
37917;SDS011;23749;51.410;21.130;2022-09-03T19:28:40;208.70;;;197.53;;
37917;SDS011;23749;51.410;21.130;2022-09-03T19:37:26;207.40;;;196.20;;
37917;SDS011;23749;51.410;21.130;2022-09-03T19:46:11;213.80;;;202.20;;
37917;SDS011;23749;51.410;21.130;2022-09-03T19:54:53;208.67;;;197.90;;
37917;SDS011;23749;51.410;21.130;2022-09-03T20:03:32;226.07;;;214.47;;
37917;SDS011;23749;51.410;21.130;2022-09-03T20:12:12;244.00;;;230.77;;
37917;SDS011;23749;51.410;21.130;2022-09-03T20:20:40;279.83;;;264.60;;
37917;SDS011;23749;51.410;21.130;2022-09-03T20:37:30;296.63;;;280.03;;
37917;SDS011;23749;51.410;21.130;2022-09-03T20:54:36;333.97;;;314.60;;
37917;SDS011;23749;51.410;21.130;2022-09-03T21:20:05;314.43;;;296.70;;
37917;SDS011;23749;51.410;21.130;2022-09-03T21:37:15;513.20;;;479.93;;
37917;SDS011;23749;51.410;21.130;2022-09-03T21:45:46;585.80;;;547.00;;
37917;SDS011;23749;51.410;21.130;2022-09-03T22:02:35;557.53;;;520.73;;
37917;SDS011;23749;51.410;21.130;2022-09-03T22:10:57;572.53;;;535.10;;
37917;SDS011;23749;51.410;21.130;2022-09-03T22:19:19;559.10;;;522.23;;
37917;SDS011;23749;51.410;21.130;2022-09-03T22:36:27;564.47;;;526.90;;
37917;SDS011;23749;51.410;21.130;2022-09-03T23:10:09;589.80;;;549.17;;
37917;SDS011;23749;51.410;21.130;2022-09-03T23:18:31;584.87;;;544.17;;
37917;SDS011;23749;51.410;21.130;2022-09-03T23:26:52;608.50;;;565.67;;
37917;SDS011;23749;51.410;21.130;2022-09-03T23:35:13;609.97;;;567.97;;
